Погода Старое Котчищена 2 недели

Тверская область, Россия

19 мая-01 июня
  • 19мая
    Сегодня
    +9°
    +24°
    Ясно и безоблачно
    ВремяПогодаТемператураВлажностьДавлениеВетер, м/сВероятность осадков
    00:00Ясно и безоблачно+10°C69 %752 мм0.7 м/с2 %
    03:00Ясно и безоблачно+6°C82 %752 мм0.5 м/с2 %
    06:00Ясно и безоблачно+8°C82 %752 мм0.8 м/с2 %
    09:00Ясно и безоблачно+17°C60 %752 мм1.4 м/с2 %
    12:00Ясно и безоблачно+21°C43 %751 мм2.4 м/с2 %
    15:00Ясно и безоблачно+23°C39 %750 мм2.1 м/с2 %
    18:00Ясно и безоблачно+23°C41 %749 мм2.0 м/с2 %
    21:00Ясно и безоблачно+16°C60 %749 мм1.1 м/с2 %
  • 20мая
    Понедельник
    +9°
    +24°
    Практически безоблачно
    ВремяПогодаТемператураВлажностьДавлениеВетер, м/сВероятность осадков
    00:00Ясно и безоблачно+13°C73 %748 мм1.0 м/с2 %
    03:00Небольшая облачность+11°C76 %748 мм0.8 м/с2 %
    06:00Небольшая облачность+12°C72 %748 мм1.1 м/с2 %
    09:00Ясно и безоблачно+19°C59 %749 мм2.1 м/с2 %
    12:00Практически безоблачно+22°C43 %749 мм3.4 м/с8 %
    15:00Практически безоблачно+23°C42 %748 мм2.5 м/с10 %
    18:00Небольшая облачность+22°C45 %748 мм2.1 м/с24 %
    21:00Ясно и безоблачно+16°C84 %749 мм0.3 м/с16 %
  • 21мая
    Вторник
    +7°
    +22°
    Ясно и безоблачно
    ВремяПогодаТемператураВлажностьДавлениеВетер, м/сВероятность осадков
    00:00Небольшая облачность+12°C94 %749 мм0.5 м/с4 %
    03:00Практически безоблачно+10°C96 %750 мм0.6 м/с6 %
    06:00Ясно и безоблачно+10°C82 %751 мм0.9 м/с8 %
    09:00Ясно и безоблачно+16°C70 %752 мм1.1 м/с7 %
    12:00Практически безоблачно+20°C52 %752 мм2.0 м/с10 %
    15:00Ясно и безоблачно+22°C44 %751 мм2.5 м/с10 %
    18:00Ясно и безоблачно+21°C40 %751 мм2.4 м/с5 %
    21:00Ясно и безоблачно+16°C54 %752 мм1.0 м/с2 %
  • 22мая
    Среда
    +6°
    +22°
    Ясно и безоблачно
    ВремяПогодаТемператураВлажностьДавлениеВетер, м/сВероятность осадков
    00:00Ясно и безоблачно+10°C52 %752 мм0.6 м/с2 %
    03:00Ясно и безоблачно+9°C65 %753 мм0.8 м/с2 %
    06:00Ясно и безоблачно+8°C61 %754 мм0.9 м/с2 %
    09:00Ясно и безоблачно+16°C50 %755 мм1.3 м/с2 %
    12:00Ясно и безоблачно+19°C39 %755 мм2.5 м/с2 %
    15:00Ясно и безоблачно+21°C35 %755 мм2.4 м/с2 %
    18:00Ясно и безоблачно+18°C38 %754 мм2.8 м/с3 %
    21:00Ясно и безоблачно+13°C46 %755 мм1.5 м/с2 %
  • 23мая
    Четверг
    +6°
    +20°
    Ясно и безоблачно
    ВремяПогодаТемператураВлажностьДавлениеВетер, м/сВероятность осадков
    00:00Ясно и безоблачно+10°C61 %756 мм0.9 м/с2 %
    03:00Ясно и безоблачно+8°C66 %757 мм0.8 м/с2 %
    06:00Ясно и безоблачно+8°C63 %758 мм1.0 м/с2 %
    09:00Ясно и безоблачно+15°C48 %759 мм1.7 м/с2 %
    12:00Ясно и безоблачно+18°C37 %759 мм2.8 м/с2 %
    15:00Ясно и безоблачно+20°C36 %759 мм2.2 м/с7 %
    18:00Ясно и безоблачно+18°C38 %758 мм2.0 м/с6 %
    21:00Ясно и безоблачно+12°C56 %758 мм0.8 м/с2 %
Мы используем cookies
Соглашаюсь